Главная страница
METAR-TAF:

METAR-TAF

Аэропорты :

Триполи, Ливия

широта: 32-54N, долгота: 13-17E, высота над уровнем моря: 11 м

Текущие метеонаблюдения

Эта сводка был подготовлена 24 часа и 40 минут назад, в 00:50 UTC
Ветер 4 Узел от восточно-юго-восточный
Температура 23°C
Влажность 78%
Давление 1015 hPa
Видимость: 7000 м
ясное небо

METAR: HLLM 230050Z 11004KT 7000 SKC 23/19 Q1015

Время: 03:30 (01:30 UTC)

Прогноз

Эта сводка был подготовлена 20 часа и 30 минут назад, в 05:00 UTC
Прогноз действительный с 23-го 06 UTC до 24-го 06 UTC
Ветер 2 Узел переменных направлений
Видимость: 8000 м
изменения
С 23-го 10 UTC до 23-го 12 UTC
Ветер 10 Узел от восточно-северо-восточный

TAF: HLLM 230500Z 2306/2406 VRB02KT 8000 NSC BECMG 2310/2312 06010KT

Метеонаблюдения и прогнозы для более 4000 аэропортов (сводки METAR и TAF).

Имеющиеся станции представлены на карте желтыми и красными точками.

Чтобы увидеть название станции, наведите на нее мышь.

Затем щелкните, чтобы увидеть метеонаблюдения и метеопрогнозы.

Управление картой: чтобы увеличить масштаб, щелкните зеленые кнопки с черным крестиком; чтобы уменьшить масштаб, щелкните зеленую кнопку с тире; для просмотра соседних карт щелкайте зеленые стрелки.


METAR-TAF: